sensor_id;sensor_type;location;lat;lon;timestamp;P1;durP1;ratioP1;P2;durP2;ratioP2
56285;SDS011;42191;47.562;9.686;2023-04-24T00:00:30;34.53;;;32.53;;
56285;SDS011;42191;47.562;9.686;2023-04-24T00:02:56;34.75;;;32.75;;
56285;SDS011;42191;47.562;9.686;2023-04-24T00:05:23;35.58;;;33.38;;
56285;SDS011;42191;47.562;9.686;2023-04-24T00:07:49;34.17;;;32.17;;
56285;SDS011;42191;47.562;9.686;2023-04-24T00:10:19;35.15;;;33.15;;
56285;SDS011;42191;47.562;9.686;2023-04-24T00:12:45;34.70;;;32.60;;
56285;SDS011;42191;47.562;9.686;2023-04-24T00:15:11;33.38;;;31.48;;
56285;SDS011;42191;47.562;9.686;2023-04-24T00:17:37;35.08;;;32.97;;
56285;SDS011;42191;47.562;9.686;2023-04-24T00:20:04;33.60;;;31.67;;
56285;SDS011;42191;47.562;9.686;2023-04-24T00:22:32;34.80;;;32.78;;
56285;SDS011;42191;47.562;9.686;2023-04-24T00:24:58;34.08;;;32.08;;
56285;SDS011;42191;47.562;9.686;2023-04-24T00:27:24;35.88;;;33.78;;
56285;SDS011;42191;47.562;9.686;2023-04-24T00:29:50;33.80;;;31.80;;
56285;SDS011;42191;47.562;9.686;2023-04-24T00:32:16;35.13;;;33.08;;
56285;SDS011;42191;47.562;9.686;2023-04-24T00:34:42;35.25;;;33.15;;
56285;SDS011;42191;47.562;9.686;2023-04-24T00:37:08;33.97;;;31.98;;
56285;SDS011;42191;47.562;9.686;2023-04-24T00:39:35;35.45;;;33.30;;
56285;SDS011;42191;47.562;9.686;2023-04-24T00:42:01;32.67;;;30.77;;
56285;SDS011;42191;47.562;9.686;2023-04-24T00:44:27;36.33;;;34.22;;
56285;SDS011;42191;47.562;9.686;2023-04-24T00:46:53;36.00;;;33.85;;
56285;SDS011;42191;47.562;9.686;2023-04-24T00:49:21;33.83;;;31.83;;
56285;SDS011;42191;47.562;9.686;2023-04-24T00:51:47;35.03;;;32.88;;
56285;SDS011;42191;47.562;9.686;2023-04-24T00:54:14;35.83;;;33.72;;
56285;SDS011;42191;47.562;9.686;2023-04-24T00:56:41;36.35;;;34.25;;
56285;SDS011;42191;47.562;9.686;2023-04-24T00:59:08;35.03;;;32.72;;
56285;SDS011;42191;47.562;9.686;2023-04-24T01:01:35;35.47;;;33.38;;
56285;SDS011;42191;47.562;9.686;2023-04-24T01:04:02;35.55;;;33.45;;
56285;SDS011;42191;47.562;9.686;2023-04-24T01:06:29;35.20;;;33.10;;
56285;SDS011;42191;47.562;9.686;2023-04-24T01:08:56;35.08;;;33.03;;
56285;SDS011;42191;47.562;9.686;2023-04-24T01:11:24;33.60;;;31.67;;
56285;SDS011;42191;47.562;9.686;2023-04-24T01:13:51;35.60;;;33.50;;
56285;SDS011;42191;47.562;9.686;2023-04-24T01:16:17;33.92;;;31.92;;
56285;SDS011;42191;47.562;9.686;2023-04-24T01:18:45;35.58;;;33.47;;
56285;SDS011;42191;47.562;9.686;2023-04-24T01:21:13;36.90;;;34.63;;
56285;SDS011;42191;47.562;9.686;2023-04-24T01:23:41;34.80;;;32.80;;
56285;SDS011;42191;47.562;9.686;2023-04-24T01:26:11;35.13;;;33.08;;
56285;SDS011;42191;47.562;9.686;2023-04-24T01:28:39;33.65;;;31.65;;
56285;SDS011;42191;47.562;9.686;2023-04-24T01:31:05;34.42;;;32.42;;
56285;SDS011;42191;47.562;9.686;2023-04-24T01:33:32;34.22;;;32.22;;
56285;SDS011;42191;47.562;9.686;2023-04-24T01:35:58;36.17;;;34.08;;
56285;SDS011;42191;47.562;9.686;2023-04-24T01:38:24;35.30;;;33.25;;
56285;SDS011;42191;47.562;9.686;2023-04-24T01:40:50;35.03;;;33.03;;
56285;SDS011;42191;47.562;9.686;2023-04-24T01:43:17;35.47;;;33.40;;
56285;SDS011;42191;47.562;9.686;2023-04-24T01:45:44;33.97;;;32.03;;
56285;SDS011;42191;47.562;9.686;2023-04-24T01:48:11;32.72;;;30.83;;
56285;SDS011;42191;47.562;9.686;2023-04-24T01:50:38;34.13;;;32.13;;
56285;SDS011;42191;47.562;9.686;2023-04-24T01:53:04;33.95;;;31.98;;
56285;SDS011;42191;47.562;9.686;2023-04-24T01:55:30;35.35;;;33.30;;
56285;SDS011;42191;47.562;9.686;2023-04-24T01:57:56;34.55;;;32.47;;
56285;SDS011;42191;47.562;9.686;2023-04-24T02:00:24;34.20;;;32.20;;
56285;SDS011;42191;47.562;9.686;2023-04-24T02:02:50;35.53;;;33.45;;
56285;SDS011;42191;47.562;9.686;2023-04-24T02:05:17;34.60;;;32.60;;
56285;SDS011;42191;47.562;9.686;2023-04-24T02:07:43;34.67;;;32.67;;
56285;SDS011;42191;47.562;9.686;2023-04-24T02:10:09;36.17;;;34.08;;
56285;SDS011;42191;47.562;9.686;2023-04-24T02:12:36;34.28;;;32.28;;
56285;SDS011;42191;47.562;9.686;2023-04-24T02:15:02;34.38;;;32.38;;
56285;SDS011;42191;47.562;9.686;2023-04-24T02:17:28;33.97;;;31.98;;
56285;SDS011;42191;47.562;9.686;2023-04-24T02:19:55;34.88;;;32.72;;
56285;SDS011;42191;47.562;9.686;2023-04-24T02:22:21;34.72;;;32.67;;
56285;SDS011;42191;47.562;9.686;2023-04-24T02:24:47;35.33;;;33.22;;
56285;SDS011;42191;47.562;9.686;2023-04-24T02:27:14;35.00;;;32.90;;
56285;SDS011;42191;47.562;9.686;2023-04-24T02:29:40;34.17;;;32.17;;
56285;SDS011;42191;47.562;9.686;2023-04-24T02:32:06;34.83;;;32.83;;
56285;SDS011;42191;47.562;9.686;2023-04-24T02:34:36;35.92;;;33.83;;
56285;SDS011;42191;47.562;9.686;2023-04-24T02:37:02;35.17;;;33.13;;
56285;SDS011;42191;47.562;9.686;2023-04-24T02:39:28;36.58;;;34.47;;
56285;SDS011;42191;47.562;9.686;2023-04-24T02:41:54;35.60;;;33.53;;
56285;SDS011;42191;47.562;9.686;2023-04-24T02:44:20;35.67;;;33.58;;
56285;SDS011;42191;47.562;9.686;2023-04-24T02:46:47;34.40;;;32.40;;
56285;SDS011;42191;47.562;9.686;2023-04-24T02:49:13;34.38;;;32.38;;
56285;SDS011;42191;47.562;9.686;2023-04-24T02:51:40;35.78;;;33.67;;
56285;SDS011;42191;47.562;9.686;2023-04-24T02:54:07;34.28;;;32.28;;
56285;SDS011;42191;47.562;9.686;2023-04-24T02:56:34;35.65;;;33.55;;
56285;SDS011;42191;47.562;9.686;2023-04-24T02:59:00;34.95;;;32.95;;
56285;SDS011;42191;47.562;9.686;2023-04-24T03:01:26;34.38;;;32.38;;
56285;SDS011;42191;47.562;9.686;2023-04-24T03:03:53;35.83;;;33.72;;
56285;SDS011;42191;47.562;9.686;2023-04-24T03:06:19;34.83;;;32.80;;
56285;SDS011;42191;47.562;9.686;2023-04-24T03:08:46;36.03;;;33.92;;
56285;SDS011;42191;47.562;9.686;2023-04-24T03:11:12;37.15;;;34.95;;
56285;SDS011;42191;47.562;9.686;2023-04-24T03:13:38;34.90;;;32.90;;
56285;SDS011;42191;47.562;9.686;2023-04-24T03:16:05;35.25;;;33.15;;
56285;SDS011;42191;47.562;9.686;2023-04-24T03:18:31;36.13;;;34.03;;
56285;SDS011;42191;47.562;9.686;2023-04-24T03:20:57;34.10;;;32.13;;
56285;SDS011;42191;47.562;9.686;2023-04-24T03:23:23;35.22;;;33.13;;
56285;SDS011;42191;47.562;9.686;2023-04-24T03:25:49;33.60;;;31.70;;
56285;SDS011;42191;47.562;9.686;2023-04-24T03:28:16;34.63;;;32.63;;
56285;SDS011;42191;47.562;9.686;2023-04-24T03:30:42;34.72;;;32.72;;
56285;SDS011;42191;47.562;9.686;2023-04-24T03:33:08;35.83;;;33.72;;
56285;SDS011;42191;47.562;9.686;2023-04-24T03:35:34;34.80;;;32.80;;
56285;SDS011;42191;47.562;9.686;2023-04-24T03:38:01;36.10;;;34.00;;
56285;SDS011;42191;47.562;9.686;2023-04-24T03:40:29;35.67;;;33.58;;
56285;SDS011;42191;47.562;9.686;2023-04-24T03:42:55;35.95;;;33.85;;
56285;SDS011;42191;47.562;9.686;2023-04-24T03:45:21;36.97;;;34.78;;
56285;SDS011;42191;47.562;9.686;2023-04-24T03:47:47;34.20;;;32.20;;
56285;SDS011;42191;47.562;9.686;2023-04-24T03:50:13;33.63;;;31.63;;
56285;SDS011;42191;47.562;9.686;2023-04-24T03:52:39;34.85;;;32.85;;
56285;SDS011;42191;47.562;9.686;2023-04-24T03:55:06;35.80;;;33.70;;
56285;SDS011;42191;47.562;9.686;2023-04-24T03:57:32;34.03;;;32.03;;
56285;SDS011;42191;47.562;9.686;2023-04-24T03:59:58;34.30;;;32.30;;
56285;SDS011;42191;47.562;9.686;2023-04-24T04:02:24;35.10;;;33.08;;
56285;SDS011;42191;47.562;9.686;2023-04-24T04:04:51;34.58;;;32.55;;
56285;SDS011;42191;47.562;9.686;2023-04-24T04:07:17;34.83;;;32.83;;
56285;SDS011;42191;47.562;9.686;2023-04-24T04:09:43;36.63;;;34.53;;
56285;SDS011;42191;47.562;9.686;2023-04-24T04:12:09;34.97;;;32.92;;
56285;SDS011;42191;47.562;9.686;2023-04-24T04:14:35;36.78;;;34.67;;
56285;SDS011;42191;47.562;9.686;2023-04-24T04:17:01;34.33;;;32.33;;
56285;SDS011;42191;47.562;9.686;2023-04-24T04:19:27;37.05;;;34.90;;
56285;SDS011;42191;47.562;9.686;2023-04-24T04:21:53;35.85;;;33.75;;
56285;SDS011;42191;47.562;9.686;2023-04-24T04:24:21;36.10;;;34.00;;
56285;SDS011;42191;47.562;9.686;2023-04-24T04:26:47;35.05;;;32.95;;
56285;SDS011;42191;47.562;9.686;2023-04-24T04:29:15;34.75;;;32.75;;
56285;SDS011;42191;47.562;9.686;2023-04-24T04:31:45;34.65;;;32.63;;
56285;SDS011;42191;47.562;9.686;2023-04-24T04:34:12;35.65;;;33.55;;
56285;SDS011;42191;47.562;9.686;2023-04-24T04:36:39;34.30;;;32.30;;
56285;SDS011;42191;47.562;9.686;2023-04-24T04:39:09;35.83;;;33.72;;
56285;SDS011;42191;47.562;9.686;2023-04-24T04:41:35;34.28;;;32.28;;
56285;SDS011;42191;47.562;9.686;2023-04-24T04:44:02;35.22;;;33.22;;
56285;SDS011;42191;47.562;9.686;2023-04-24T04:46:29;35.15;;;33.15;;
56285;SDS011;42191;47.562;9.686;2023-04-24T04:48:58;35.63;;;33.55;;
56285;SDS011;42191;47.562;9.686;2023-04-24T04:51:38;35.50;;;33.42;;
56285;SDS011;42191;47.562;9.686;2023-04-24T04:54:28;35.05;;;33.00;;
56285;SDS011;42191;47.562;9.686;2023-04-24T04:56:54;36.97;;;34.88;;
56285;SDS011;42191;47.562;9.686;2023-04-24T04:59:20;37.03;;;34.83;;
56285;SDS011;42191;47.562;9.686;2023-04-24T05:01:46;35.22;;;33.13;;
56285;SDS011;42191;47.562;9.686;2023-04-24T05:04:12;35.28;;;33.22;;
56285;SDS011;42191;47.562;9.686;2023-04-24T05:06:39;36.10;;;34.00;;
56285;SDS011;42191;47.562;9.686;2023-04-24T05:09:05;35.00;;;32.95;;
56285;SDS011;42191;47.562;9.686;2023-04-24T05:11:32;33.17;;;31.27;;
56285;SDS011;42191;47.562;9.686;2023-04-24T05:13:58;36.25;;;34.15;;
56285;SDS011;42191;47.562;9.686;2023-04-24T05:16:25;34.35;;;32.35;;
56285;SDS011;42191;47.562;9.686;2023-04-24T05:18:51;36.47;;;34.30;;
56285;SDS011;42191;47.562;9.686;2023-04-24T05:21:17;34.90;;;32.90;;
56285;SDS011;42191;47.562;9.686;2023-04-24T05:23:43;34.65;;;32.63;;
56285;SDS011;42191;47.562;9.686;2023-04-24T05:26:09;35.55;;;33.47;;
56285;SDS011;42191;47.562;9.686;2023-04-24T05:28:36;33.60;;;31.67;;
56285;SDS011;42191;47.562;9.686;2023-04-24T05:31:02;36.97;;;34.88;;
56285;SDS011;42191;47.562;9.686;2023-04-24T05:33:28;35.30;;;33.20;;
56285;SDS011;42191;47.562;9.686;2023-04-24T05:35:55;33.15;;;31.17;;
56285;SDS011;42191;47.562;9.686;2023-04-24T05:38:21;35.42;;;33.33;;
56285;SDS011;42191;47.562;9.686;2023-04-24T05:40:47;37.67;;;35.47;;
56285;SDS011;42191;47.562;9.686;2023-04-24T05:43:13;36.08;;;33.97;;
56285;SDS011;42191;47.562;9.686;2023-04-24T05:45:39;35.95;;;33.75;;
56285;SDS011;42191;47.562;9.686;2023-04-24T05:48:05;34.13;;;32.13;;
56285;SDS011;42191;47.562;9.686;2023-04-24T05:50:31;35.90;;;33.80;;
56285;SDS011;42191;47.562;9.686;2023-04-24T05:52:57;35.58;;;33.47;;
56285;SDS011;42191;47.562;9.686;2023-04-24T05:55:26;36.00;;;33.83;;
56285;SDS011;42191;47.562;9.686;2023-04-24T05:57:52;36.58;;;34.40;;
56285;SDS011;42191;47.562;9.686;2023-04-24T06:00:19;35.05;;;32.97;;
56285;SDS011;42191;47.562;9.686;2023-04-24T06:02:45;36.55;;;34.35;;
56285;SDS011;42191;47.562;9.686;2023-04-24T06:05:12;36.05;;;33.95;;
56285;SDS011;42191;47.562;9.686;2023-04-24T06:07:38;35.00;;;33.00;;
56285;SDS011;42191;47.562;9.686;2023-04-24T06:10:05;34.38;;;32.38;;
56285;SDS011;42191;47.562;9.686;2023-04-24T06:12:31;34.45;;;32.45;;
56285;SDS011;42191;47.562;9.686;2023-04-24T06:14:58;35.08;;;33.08;;
56285;SDS011;42191;47.562;9.686;2023-04-24T06:17:24;35.28;;;33.17;;
56285;SDS011;42191;47.562;9.686;2023-04-24T06:19:50;35.35;;;33.25;;
56285;SDS011;42191;47.562;9.686;2023-04-24T06:22:16;33.88;;;31.92;;
56285;SDS011;42191;47.562;9.686;2023-04-24T06:24:42;36.13;;;34.03;;
56285;SDS011;42191;47.562;9.686;2023-04-24T06:27:08;34.38;;;32.38;;
56285;SDS011;42191;47.562;9.686;2023-04-24T06:29:36;34.30;;;32.03;;
56285;SDS011;42191;47.562;9.686;2023-04-24T06:32:02;34.35;;;32.35;;
56285;SDS011;42191;47.562;9.686;2023-04-24T06:34:28;35.42;;;33.33;;
56285;SDS011;42191;47.562;9.686;2023-04-24T06:36:55;35.50;;;33.45;;
56285;SDS011;42191;47.562;9.686;2023-04-24T06:39:21;33.47;;;31.58;;
56285;SDS011;42191;47.562;9.686;2023-04-24T06:41:47;36.05;;;33.95;;
56285;SDS011;42191;47.562;9.686;2023-04-24T06:44:13;34.78;;;32.78;;
56285;SDS011;42191;47.562;9.686;2023-04-24T06:46:40;35.88;;;33.78;;
56285;SDS011;42191;47.562;9.686;2023-04-24T06:49:06;37.13;;;34.95;;
56285;SDS011;42191;47.562;9.686;2023-04-24T06:51:32;36.13;;;34.03;;
56285;SDS011;42191;47.562;9.686;2023-04-24T06:53:59;34.88;;;32.80;;
56285;SDS011;42191;47.562;9.686;2023-04-24T06:56:25;35.83;;;33.72;;
56285;SDS011;42191;47.562;9.686;2023-04-24T06:58:51;34.20;;;32.20;;
56285;SDS011;42191;47.562;9.686;2023-04-24T07:01:18;35.08;;;32.97;;
56285;SDS011;42191;47.562;9.686;2023-04-24T07:03:44;36.00;;;33.80;;
56285;SDS011;42191;47.562;9.686;2023-04-24T07:06:10;36.88;;;34.72;;
56285;SDS011;42191;47.562;9.686;2023-04-24T07:08:37;37.47;;;35.28;;
56285;SDS011;42191;47.562;9.686;2023-04-24T07:11:03;34.78;;;32.67;;
56285;SDS011;42191;47.562;9.686;2023-04-24T07:13:30;36.35;;;34.15;;
56285;SDS011;42191;47.562;9.686;2023-04-24T07:15:56;36.72;;;34.47;;
56285;SDS011;42191;47.562;9.686;2023-04-24T07:18:23;35.17;;;33.08;;
56285;SDS011;42191;47.562;9.686;2023-04-24T07:20:49;36.35;;;34.20;;
56285;SDS011;42191;47.562;9.686;2023-04-24T07:23:15;35.83;;;33.53;;
56285;SDS011;42191;47.562;9.686;2023-04-24T07:25:42;36.85;;;34.65;;
56285;SDS011;42191;47.562;9.686;2023-04-24T07:28:09;36.45;;;34.25;;
56285;SDS011;42191;47.562;9.686;2023-04-24T07:30:35;37.22;;;35.03;;
56285;SDS011;42191;47.562;9.686;2023-04-24T07:33:01;36.55;;;34.33;;
56285;SDS011;42191;47.562;9.686;2023-04-24T07:35:27;34.78;;;32.70;;
56285;SDS011;42191;47.562;9.686;2023-04-24T07:37:53;34.85;;;32.75;;
56285;SDS011;42191;47.562;9.686;2023-04-24T07:40:20;35.75;;;33.55;;
56285;SDS011;42191;47.562;9.686;2023-04-24T07:42:47;34.85;;;32.75;;
56285;SDS011;42191;47.562;9.686;2023-04-24T07:45:14;35.78;;;33.58;;
56285;SDS011;42191;47.562;9.686;2023-04-24T07:47:43;34.60;;;32.50;;
56285;SDS011;42191;47.562;9.686;2023-04-24T07:50:10;35.20;;;33.10;;
56285;SDS011;42191;47.562;9.686;2023-04-24T07:52:38;37.25;;;34.97;;
56285;SDS011;42191;47.562;9.686;2023-04-24T07:55:04;34.33;;;32.28;;
56285;SDS011;42191;47.562;9.686;2023-04-24T07:57:30;34.08;;;32.00;;
56285;SDS011;42191;47.562;9.686;2023-04-24T07:59:56;34.45;;;32.35;;
56285;SDS011;42191;47.562;9.686;2023-04-24T08:02:22;33.55;;;31.55;;
56285;SDS011;42191;47.562;9.686;2023-04-24T08:04:52;36.17;;;33.97;;
56285;SDS011;42191;47.562;9.686;2023-04-24T08:07:21;35.72;;;33.63;;
56285;SDS011;42191;47.562;9.686;2023-04-24T08:09:48;35.45;;;33.35;;
56285;SDS011;42191;47.562;9.686;2023-04-24T08:12:14;33.35;;;31.38;;
56285;SDS011;42191;47.562;9.686;2023-04-24T08:14:40;33.53;;;31.55;;
56285;SDS011;42191;47.562;9.686;2023-04-24T08:17:06;32.75;;;30.85;;
56285;SDS011;42191;47.562;9.686;2023-04-24T08:19:32;34.38;;;32.38;;
56285;SDS011;42191;47.562;9.686;2023-04-24T08:21:58;33.58;;;31.63;;
56285;SDS011;42191;47.562;9.686;2023-04-24T08:24:24;34.58;;;32.58;;
56285;SDS011;42191;47.562;9.686;2023-04-24T08:26:50;35.70;;;33.60;;
56285;SDS011;42191;47.562;9.686;2023-04-24T08:29:19;33.80;;;31.80;;
56285;SDS011;42191;47.562;9.686;2023-04-24T08:31:45;33.47;;;31.52;;
56285;SDS011;42191;47.562;9.686;2023-04-24T08:34:11;32.03;;;30.13;;
56285;SDS011;42191;47.562;9.686;2023-04-24T08:36:38;31.48;;;29.60;;
56285;SDS011;42191;47.562;9.686;2023-04-24T08:39:05;34.40;;;32.35;;
56285;SDS011;42191;47.562;9.686;2023-04-24T08:41:32;32.97;;;30.98;;
56285;SDS011;42191;47.562;9.686;2023-04-24T08:43:59;34.22;;;32.13;;
56285;SDS011;42191;47.562;9.686;2023-04-24T08:46:27;33.80;;;31.80;;
56285;SDS011;42191;47.562;9.686;2023-04-24T08:48:56;32.38;;;30.48;;
56285;SDS011;42191;47.562;9.686;2023-04-24T08:51:22;31.35;;;29.55;;
56285;SDS011;42191;47.562;9.686;2023-04-24T08:53:51;32.75;;;30.80;;
56285;SDS011;42191;47.562;9.686;2023-04-24T08:56:20;33.03;;;31.13;;
56285;SDS011;42191;47.562;9.686;2023-04-24T08:58:48;33.25;;;31.35;;
56285;SDS011;42191;47.562;9.686;2023-04-24T09:01:15;32.53;;;30.63;;
56285;SDS011;42191;47.562;9.686;2023-04-24T09:03:44;33.45;;;31.45;;
56285;SDS011;42191;47.562;9.686;2023-04-24T09:06:14;34.33;;;32.13;;
56285;SDS011;42191;47.562;9.686;2023-04-24T09:08:42;35.63;;;33.33;;
56285;SDS011;42191;47.562;9.686;2023-04-24T09:11:10;34.78;;;32.55;;
56285;SDS011;42191;47.562;9.686;2023-04-24T09:13:37;33.83;;;31.63;;
56285;SDS011;42191;47.562;9.686;2023-04-24T09:16:03;33.08;;;31.10;;
56285;SDS011;42191;47.562;9.686;2023-04-24T09:18:29;33.08;;;31.15;;
56285;SDS011;42191;47.562;9.686;2023-04-24T09:23:27;35.25;;;32.95;;
56285;SDS011;42191;47.562;9.686;2023-04-24T09:25:55;35.05;;;32.95;;
56285;SDS011;42191;47.562;9.686;2023-04-24T09:28:40;35.58;;;33.47;;
56285;SDS011;42191;47.562;9.686;2023-04-24T09:31:08;35.90;;;33.70;;
56285;SDS011;42191;47.562;9.686;2023-04-24T09:33:34;36.38;;;34.05;;
56285;SDS011;42191;47.562;9.686;2023-04-24T09:36:00;34.67;;;32.38;;
56285;SDS011;42191;47.562;9.686;2023-04-24T09:38:37;36.05;;;33.85;;
56285;SDS011;42191;47.562;9.686;2023-04-24T09:41:06;36.65;;;34.35;;
56285;SDS011;42191;47.562;9.686;2023-04-24T09:43:38;36.42;;;34.17;;
56285;SDS011;42191;47.562;9.686;2023-04-24T09:46:07;37.00;;;34.50;;
56285;SDS011;42191;47.562;9.686;2023-04-24T09:48:36;35.03;;;32.92;;
56285;SDS011;42191;47.562;9.686;2023-04-24T09:51:03;38.05;;;35.75;;
56285;SDS011;42191;47.562;9.686;2023-04-24T09:53:31;35.85;;;33.65;;
56285;SDS011;42191;47.562;9.686;2023-04-24T09:56:07;36.45;;;34.25;;
56285;SDS011;42191;47.562;9.686;2023-04-24T09:58:35;36.25;;;33.95;;
56285;SDS011;42191;47.562;9.686;2023-04-24T10:01:02;36.95;;;34.60;;
56285;SDS011;42191;47.562;9.686;2023-04-24T10:03:31;37.55;;;35.15;;
56285;SDS011;42191;47.562;9.686;2023-04-24T10:05:59;37.53;;;35.22;;
56285;SDS011;42191;47.562;9.686;2023-04-24T10:08:33;36.75;;;34.47;;
56285;SDS011;42191;47.562;9.686;2023-04-24T10:11:01;35.95;;;33.75;;
56285;SDS011;42191;47.562;9.686;2023-04-24T10:13:27;37.55;;;35.10;;
56285;SDS011;42191;47.562;9.686;2023-04-24T10:15:54;36.63;;;34.35;;
56285;SDS011;42191;47.562;9.686;2023-04-24T10:18:21;36.45;;;34.15;;
56285;SDS011;42191;47.562;9.686;2023-04-24T10:20:48;36.90;;;34.63;;
56285;SDS011;42191;47.562;9.686;2023-04-24T10:23:15;37.60;;;35.03;;
56285;SDS011;42191;47.562;9.686;2023-04-24T10:25:44;37.80;;;35.25;;
56285;SDS011;42191;47.562;9.686;2023-04-24T10:28:10;36.75;;;34.45;;
56285;SDS011;42191;47.562;9.686;2023-04-24T10:30:38;35.05;;;32.88;;
56285;SDS011;42191;47.562;9.686;2023-04-24T10:33:07;34.78;;;32.67;;
56285;SDS011;42191;47.562;9.686;2023-04-24T10:35:36;36.42;;;34.20;;
56285;SDS011;42191;47.562;9.686;2023-04-24T10:38:08;37.63;;;35.30;;
56285;SDS011;42191;47.562;9.686;2023-04-24T10:40:38;36.10;;;33.80;;
56285;SDS011;42191;47.562;9.686;2023-04-24T10:43:05;36.05;;;33.72;;
56285;SDS011;42191;47.562;9.686;2023-04-24T10:45:35;35.88;;;33.65;;
56285;SDS011;42191;47.562;9.686;2023-04-24T10:48:05;36.25;;;33.95;;
56285;SDS011;42191;47.562;9.686;2023-04-24T10:50:51;37.95;;;35.63;;
56285;SDS011;42191;47.562;9.686;2023-04-24T10:53:19;36.67;;;34.05;;
56285;SDS011;42191;47.562;9.686;2023-04-24T10:55:51;37.25;;;34.58;;
56285;SDS011;42191;47.562;9.686;2023-04-24T10:58:36;36.90;;;34.58;;
56285;SDS011;42191;47.562;9.686;2023-04-24T11:01:10;35.60;;;33.28;;
56285;SDS011;42191;47.562;9.686;2023-04-24T11:03:50;35.50;;;33.22;;
56285;SDS011;42191;47.562;9.686;2023-04-24T11:06:31;36.92;;;34.40;;
56285;SDS011;42191;47.562;9.686;2023-04-24T11:09:01;35.97;;;33.72;;
56285;SDS011;42191;47.562;9.686;2023-04-24T11:11:31;36.35;;;33.85;;
56285;SDS011;42191;47.562;9.686;2023-04-24T11:16:28;38.28;;;35.80;;
56285;SDS011;42191;47.562;9.686;2023-04-24T11:21:39;36.00;;;33.75;;
56285;SDS011;42191;47.562;9.686;2023-04-24T11:37:30;33.97;;;31.90;;
56285;SDS011;42191;47.562;9.686;2023-04-24T11:40:01;35.08;;;32.83;;
56285;SDS011;42191;47.562;9.686;2023-04-24T11:42:28;34.70;;;32.60;;
56285;SDS011;42191;47.562;9.686;2023-04-24T11:45:06;34.70;;;32.53;;
56285;SDS011;42191;47.562;9.686;2023-04-24T11:47:36;34.65;;;32.45;;
56285;SDS011;42191;47.562;9.686;2023-04-24T11:50:04;33.38;;;31.30;;
56285;SDS011;42191;47.562;9.686;2023-04-24T11:52:32;35.45;;;33.25;;
56285;SDS011;42191;47.562;9.686;2023-04-24T11:55:03;35.80;;;33.60;;
56285;SDS011;42191;47.562;9.686;2023-04-24T11:57:31;34.20;;;31.90;;
56285;SDS011;42191;47.562;9.686;2023-04-24T12:00:02;34.92;;;32.67;;
56285;SDS011;42191;47.562;9.686;2023-04-24T12:02:33;34.05;;;31.88;;
56285;SDS011;42191;47.562;9.686;2023-04-24T12:04:59;35.03;;;32.85;;
56285;SDS011;42191;47.562;9.686;2023-04-24T12:07:25;35.05;;;32.88;;
56285;SDS011;42191;47.562;9.686;2023-04-24T12:09:57;34.63;;;32.38;;
56285;SDS011;42191;47.562;9.686;2023-04-24T12:12:27;34.17;;;32.08;;
56285;SDS011;42191;47.562;9.686;2023-04-24T12:14:57;35.45;;;33.35;;
56285;SDS011;42191;47.562;9.686;2023-04-24T12:17:27;34.55;;;32.35;;
56285;SDS011;42191;47.562;9.686;2023-04-24T12:19:59;34.15;;;31.92;;
56285;SDS011;42191;47.562;9.686;2023-04-24T12:22:27;34.00;;;31.90;;
56285;SDS011;42191;47.562;9.686;2023-04-24T12:25:09;33.45;;;31.45;;
56285;SDS011;42191;47.562;9.686;2023-04-24T12:27:36;33.60;;;31.40;;
56285;SDS011;42191;47.562;9.686;2023-04-24T12:30:03;36.50;;;34.10;;
56285;SDS011;42191;47.562;9.686;2023-04-24T12:32:30;35.67;;;33.33;;
56285;SDS011;42191;47.562;9.686;2023-04-24T12:34:57;33.70;;;31.55;;
56285;SDS011;42191;47.562;9.686;2023-04-24T12:37:26;34.05;;;31.95;;
56285;SDS011;42191;47.562;9.686;2023-04-24T12:40:09;34.15;;;32.05;;
56285;SDS011;42191;47.562;9.686;2023-04-24T12:42:41;34.15;;;32.15;;
56285;SDS011;42191;47.562;9.686;2023-04-24T12:45:12;33.35;;;31.35;;
56285;SDS011;42191;47.562;9.686;2023-04-24T12:47:40;34.92;;;32.83;;
56285;SDS011;42191;47.562;9.686;2023-04-24T12:50:08;32.95;;;30.70;;
56285;SDS011;42191;47.562;9.686;2023-04-24T12:52:36;32.08;;;30.17;;
56285;SDS011;42191;47.562;9.686;2023-04-24T12:55:03;33.17;;;31.15;;
56285;SDS011;42191;47.562;9.686;2023-04-24T12:57:33;33.25;;;31.08;;
56285;SDS011;42191;47.562;9.686;2023-04-24T13:00:00;32.97;;;30.98;;
56285;SDS011;42191;47.562;9.686;2023-04-24T13:02:27;33.47;;;31.48;;
56285;SDS011;42191;47.562;9.686;2023-04-24T13:04:56;33.40;;;31.10;;
56285;SDS011;42191;47.562;9.686;2023-04-24T13:07:23;33.03;;;31.02;;
56285;SDS011;42191;47.562;9.686;2023-04-24T13:09:50;32.67;;;30.65;;
56285;SDS011;42191;47.562;9.686;2023-04-24T13:12:17;32.45;;;30.13;;
56285;SDS011;42191;47.562;9.686;2023-04-24T13:14:45;32.85;;;30.85;;
56285;SDS011;42191;47.562;9.686;2023-04-24T13:17:11;33.70;;;31.55;;
56285;SDS011;42191;47.562;9.686;2023-04-24T13:19:42;30.92;;;29.02;;
56285;SDS011;42191;47.562;9.686;2023-04-24T13:22:09;32.75;;;30.65;;
56285;SDS011;42191;47.562;9.686;2023-04-24T13:24:36;30.55;;;28.58;;
56285;SDS011;42191;47.562;9.686;2023-04-24T13:27:05;30.92;;;29.02;;
56285;SDS011;42191;47.562;9.686;2023-04-24T13:29:32;29.75;;;27.67;;
56285;SDS011;42191;47.562;9.686;2023-04-24T13:31:58;29.50;;;27.60;;
56285;SDS011;42191;47.562;9.686;2023-04-24T13:34:25;29.10;;;27.40;;
56285;SDS011;42191;47.562;9.686;2023-04-24T13:36:52;28.33;;;26.63;;
56285;SDS011;42191;47.562;9.686;2023-04-24T13:39:20;28.20;;;26.40;;
56285;SDS011;42191;47.562;9.686;2023-04-24T13:41:47;29.05;;;27.25;;
56285;SDS011;42191;47.562;9.686;2023-04-24T13:44:14;26.48;;;24.85;;
56285;SDS011;42191;47.562;9.686;2023-04-24T13:46:41;27.45;;;25.75;;
56285;SDS011;42191;47.562;9.686;2023-04-24T13:49:10;27.50;;;25.80;;
56285;SDS011;42191;47.562;9.686;2023-04-24T13:51:36;28.02;;;26.33;;
56285;SDS011;42191;47.562;9.686;2023-04-24T13:54:03;28.48;;;26.77;;
56285;SDS011;42191;47.562;9.686;2023-04-24T13:56:29;28.63;;;26.70;;
56285;SDS011;42191;47.562;9.686;2023-04-24T13:58:55;27.23;;;25.50;;
56285;SDS011;42191;47.562;9.686;2023-04-24T14:01:22;27.90;;;26.20;;
56285;SDS011;42191;47.562;9.686;2023-04-24T14:03:50;26.88;;;25.20;;
56285;SDS011;42191;47.562;9.686;2023-04-24T14:06:20;27.65;;;25.85;;
56285;SDS011;42191;47.562;9.686;2023-04-24T14:08:48;28.85;;;27.15;;
56285;SDS011;42191;47.562;9.686;2023-04-24T14:11:15;28.80;;;27.00;;
56285;SDS011;42191;47.562;9.686;2023-04-24T14:13:42;30.10;;;28.30;;
56285;SDS011;42191;47.562;9.686;2023-04-24T14:16:08;30.83;;;28.83;;
56285;SDS011;42191;47.562;9.686;2023-04-24T14:18:35;30.05;;;28.15;;
56285;SDS011;42191;47.562;9.686;2023-04-24T14:21:02;30.40;;;28.60;;
56285;SDS011;42191;47.562;9.686;2023-04-24T14:23:29;30.13;;;28.33;;
56285;SDS011;42191;47.562;9.686;2023-04-24T14:25:56;30.02;;;28.20;;
56285;SDS011;42191;47.562;9.686;2023-04-24T14:28:23;31.33;;;29.38;;
56285;SDS011;42191;47.562;9.686;2023-04-24T14:30:50;31.50;;;29.40;;
56285;SDS011;42191;47.562;9.686;2023-04-24T14:33:16;31.55;;;29.55;;
56285;SDS011;42191;47.562;9.686;2023-04-24T14:35:43;30.55;;;28.67;;
56285;SDS011;42191;47.562;9.686;2023-04-24T14:38:09;28.88;;;27.08;;
56285;SDS011;42191;47.562;9.686;2023-04-24T14:40:35;29.27;;;27.48;;
56285;SDS011;42191;47.562;9.686;2023-04-24T14:43:02;29.48;;;27.67;;